sensor_id;sensor_type;location;lat;lon;timestamp;P1;durP1;ratioP1;P2;durP2;ratioP2
43154;SDS011;34212;51.018;13.586;2023-04-19T05:04:20;12.50;;;8.27;;
43154;SDS011;34212;51.018;13.586;2023-04-19T05:09:22;16.45;;;8.00;;
43154;SDS011;34212;51.018;13.586;2023-04-19T05:14:24;11.48;;;7.65;;
43154;SDS011;34212;51.018;13.586;2023-04-19T05:19:25;12.73;;;7.15;;
43154;SDS011;34212;51.018;13.586;2023-04-19T05:24:34;11.05;;;7.18;;
43154;SDS011;34212;51.018;13.586;2023-04-19T05:29:36;9.60;;;5.80;;
43154;SDS011;34212;51.018;13.586;2023-04-19T05:34:38;8.23;;;5.95;;
43154;SDS011;34212;51.018;13.586;2023-04-19T05:39:44;8.10;;;5.15;;
43154;SDS011;34212;51.018;13.586;2023-04-19T05:44:47;9.45;;;5.10;;
43154;SDS011;34212;51.018;13.586;2023-04-19T05:49:50;6.95;;;5.20;;
43154;SDS011;34212;51.018;13.586;2023-04-19T05:55:06;9.65;;;4.32;;
43154;SDS011;34212;51.018;13.586;2023-04-19T06:00:14;10.55;;;4.22;;
43154;SDS011;34212;51.018;13.586;2023-04-19T06:05:25;7.65;;;4.22;;
43154;SDS011;34212;51.018;13.586;2023-04-19T06:10:29;8.23;;;3.67;;
43154;SDS011;34212;51.018;13.586;2023-04-19T06:15:48;5.10;;;3.22;;
43154;SDS011;34212;51.018;13.586;2023-04-19T06:20:51;3.63;;;2.42;;
43154;SDS011;34212;51.018;13.586;2023-04-19T06:25:53;5.25;;;3.00;;
43154;SDS011;34212;51.018;13.586;2023-04-19T06:30:54;6.13;;;2.80;;
43154;SDS011;34212;51.018;13.586;2023-04-19T06:35:56;4.03;;;2.58;;
43154;SDS011;34212;51.018;13.586;2023-04-19T06:40:57;8.57;;;3.38;;
43154;SDS011;34212;51.018;13.586;2023-04-19T06:45:59;4.70;;;2.10;;
43154;SDS011;34212;51.018;13.586;2023-04-19T06:51:01;4.72;;;2.60;;
43154;SDS011;34212;51.018;13.586;2023-04-19T06:56:03;5.32;;;3.05;;
43154;SDS011;34212;51.018;13.586;2023-04-19T07:01:05;6.60;;;2.83;;
43154;SDS011;34212;51.018;13.586;2023-04-19T07:06:07;4.78;;;2.97;;
43154;SDS011;34212;51.018;13.586;2023-04-19T07:11:09;6.65;;;2.90;;
43154;SDS011;34212;51.018;13.586;2023-04-19T07:16:10;5.72;;;3.10;;
43154;SDS011;34212;51.018;13.586;2023-04-19T07:21:13;5.65;;;2.92;;
43154;SDS011;34212;51.018;13.586;2023-04-19T07:26:15;4.38;;;2.67;;
43154;SDS011;34212;51.018;13.586;2023-04-19T07:31:17;6.65;;;3.25;;
43154;SDS011;34212;51.018;13.586;2023-04-19T07:36:18;3.90;;;2.15;;
43154;SDS011;34212;51.018;13.586;2023-04-19T07:41:20;6.07;;;2.97;;
43154;SDS011;34212;51.018;13.586;2023-04-19T07:46:22;3.97;;;2.70;;
43154;SDS011;34212;51.018;13.586;2023-04-19T07:51:24;4.88;;;2.78;;
43154;SDS011;34212;51.018;13.586;2023-04-19T07:56:26;5.50;;;2.47;;
43154;SDS011;34212;51.018;13.586;2023-04-19T08:01:28;5.97;;;2.78;;
43154;SDS011;34212;51.018;13.586;2023-04-19T08:06:32;4.55;;;2.30;;
43154;SDS011;34212;51.018;13.586;2023-04-19T08:11:34;4.88;;;3.03;;
43154;SDS011;34212;51.018;13.586;2023-04-19T08:16:36;4.33;;;2.83;;
43154;SDS011;34212;51.018;13.586;2023-04-19T08:21:41;4.43;;;2.55;;
43154;SDS011;34212;51.018;13.586;2023-04-19T08:26:42;5.15;;;2.53;;
43154;SDS011;34212;51.018;13.586;2023-04-19T08:31:44;4.68;;;2.45;;
43154;SDS011;34212;51.018;13.586;2023-04-19T08:36:46;3.67;;;2.42;;
43154;SDS011;34212;51.018;13.586;2023-04-19T08:42:04;4.93;;;3.20;;
43154;SDS011;34212;51.018;13.586;2023-04-19T08:47:24;7.07;;;3.10;;
43154;SDS011;34212;51.018;13.586;2023-04-19T08:52:34;6.13;;;3.58;;
43154;SDS011;34212;51.018;13.586;2023-04-19T08:57:55;6.28;;;2.60;;
43154;SDS011;34212;51.018;13.586;2023-04-19T09:02:57;7.70;;;2.67;;
43154;SDS011;34212;51.018;13.586;2023-04-19T09:08:19;5.72;;;3.38;;
43154;SDS011;34212;51.018;13.586;2023-04-19T09:13:25;4.68;;;3.00;;
43154;SDS011;34212;51.018;13.586;2023-04-19T09:18:27;5.22;;;2.78;;
43154;SDS011;34212;51.018;13.586;2023-04-19T09:23:33;5.47;;;3.20;;
43154;SDS011;34212;51.018;13.586;2023-04-19T09:28:55;4.68;;;3.20;;
43154;SDS011;34212;51.018;13.586;2023-04-19T09:34:15;7.82;;;3.20;;
43154;SDS011;34212;51.018;13.586;2023-04-19T09:39:30;11.75;;;3.55;;
43154;SDS011;34212;51.018;13.586;2023-04-19T09:44:33;6.32;;;3.22;;
43154;SDS011;34212;51.018;13.586;2023-04-19T09:50:05;6.28;;;3.10;;
43154;SDS011;34212;51.018;13.586;2023-04-19T09:55:23;6.72;;;3.20;;
43154;SDS011;34212;51.018;13.586;2023-04-19T10:00:30;5.15;;;2.90;;
43154;SDS011;34212;51.018;13.586;2023-04-19T10:05:45;4.22;;;3.28;;
43154;SDS011;34212;51.018;13.586;2023-04-19T10:10:47;4.63;;;3.05;;
43154;SDS011;34212;51.018;13.586;2023-04-19T10:15:54;6.53;;;3.38;;
43154;SDS011;34212;51.018;13.586;2023-04-19T10:21:08;4.90;;;2.80;;
43154;SDS011;34212;51.018;13.586;2023-04-19T10:31:12;4.32;;;2.85;;
43154;SDS011;34212;51.018;13.586;2023-04-19T10:36:14;6.83;;;3.60;;
43154;SDS011;34212;51.018;13.586;2023-04-19T10:41:17;4.68;;;2.70;;
43154;SDS011;34212;51.018;13.586;2023-04-19T10:51:37;5.30;;;2.97;;
43154;SDS011;34212;51.018;13.586;2023-04-19T11:07:23;5.60;;;3.22;;
43154;SDS011;34212;51.018;13.586;2023-04-19T11:12:25;5.50;;;3.30;;
43154;SDS011;34212;51.018;13.586;2023-04-19T11:17:30;7.00;;;3.20;;
43154;SDS011;34212;51.018;13.586;2023-04-19T11:22:36;5.18;;;2.75;;
43154;SDS011;34212;51.018;13.586;2023-04-19T11:27:41;6.03;;;3.33;;
43154;SDS011;34212;51.018;13.586;2023-04-19T11:32:45;6.85;;;3.13;;
43154;SDS011;34212;51.018;13.586;2023-04-19T11:37:48;6.90;;;2.90;;
43154;SDS011;34212;51.018;13.586;2023-04-19T11:42:54;6.35;;;3.10;;
43154;SDS011;34212;51.018;13.586;2023-04-19T11:47:57;13.07;;;3.80;;
43154;SDS011;34212;51.018;13.586;2023-04-19T11:53:01;5.05;;;2.67;;
43154;SDS011;34212;51.018;13.586;2023-04-19T11:58:24;9.60;;;2.65;;
43154;SDS011;34212;51.018;13.586;2023-04-19T12:03:26;6.03;;;3.30;;
43154;SDS011;34212;51.018;13.586;2023-04-19T12:08:29;5.53;;;3.87;;
43154;SDS011;34212;51.018;13.586;2023-04-19T12:13:32;5.22;;;3.63;;
43154;SDS011;34212;51.018;13.586;2023-04-19T12:18:43;4.88;;;3.00;;
43154;SDS011;34212;51.018;13.586;2023-04-19T12:23:52;4.13;;;3.20;;
43154;SDS011;34212;51.018;13.586;2023-04-19T12:28:55;6.25;;;3.53;;
43154;SDS011;34212;51.018;13.586;2023-04-19T12:33:57;5.28;;;2.80;;
43154;SDS011;34212;51.018;13.586;2023-04-19T12:38:59;6.25;;;3.55;;
43154;SDS011;34212;51.018;13.586;2023-04-19T12:44:00;7.07;;;3.30;;
43154;SDS011;34212;51.018;13.586;2023-04-19T12:49:02;6.40;;;3.33;;
43154;SDS011;34212;51.018;13.586;2023-04-19T12:54:03;4.68;;;2.90;;
43154;SDS011;34212;51.018;13.586;2023-04-19T12:59:07;5.80;;;3.35;;
43154;SDS011;34212;51.018;13.586;2023-04-19T13:04:09;6.07;;;3.00;;
43154;SDS011;34212;51.018;13.586;2023-04-19T13:09:12;9.02;;;3.80;;
43154;SDS011;34212;51.018;13.586;2023-04-19T13:14:15;6.80;;;3.85;;
43154;SDS011;34212;51.018;13.586;2023-04-19T13:19:17;12.03;;;4.40;;
43154;SDS011;34212;51.018;13.586;2023-04-19T13:24:19;6.57;;;3.17;;
43154;SDS011;34212;51.018;13.586;2023-04-19T13:29:21;5.78;;;3.95;;
43154;SDS011;34212;51.018;13.586;2023-04-19T13:34:22;7.18;;;3.50;;
43154;SDS011;34212;51.018;13.586;2023-04-19T13:39:24;5.38;;;3.40;;
43154;SDS011;34212;51.018;13.586;2023-04-19T13:44:25;10.57;;;3.90;;
43154;SDS011;34212;51.018;13.586;2023-04-19T13:49:27;9.50;;;3.50;;
43154;SDS011;34212;51.018;13.586;2023-04-19T13:54:29;6.97;;;4.05;;
43154;SDS011;34212;51.018;13.586;2023-04-19T13:59:30;5.72;;;3.15;;
43154;SDS011;34212;51.018;13.586;2023-04-19T14:04:32;5.20;;;3.20;;
43154;SDS011;34212;51.018;13.586;2023-04-19T14:09:33;9.02;;;3.20;;
43154;SDS011;34212;51.018;13.586;2023-04-19T14:14:35;5.13;;;3.20;;
43154;SDS011;34212;51.018;13.586;2023-04-19T14:19:37;5.53;;;3.30;;
43154;SDS011;34212;51.018;13.586;2023-04-19T14:24:38;8.63;;;3.80;;
43154;SDS011;34212;51.018;13.586;2023-04-19T14:29:40;7.10;;;3.50;;
43154;SDS011;34212;51.018;13.586;2023-04-19T14:34:41;7.47;;;3.97;;
43154;SDS011;34212;51.018;13.586;2023-04-19T14:44:46;7.55;;;4.65;;
43154;SDS011;34212;51.018;13.586;2023-04-19T14:49:48;10.23;;;6.53;;
43154;SDS011;34212;51.018;13.586;2023-04-19T14:54:50;9.02;;;3.95;;
43154;SDS011;34212;51.018;13.586;2023-04-19T14:59:53;7.40;;;4.75;;
43154;SDS011;34212;51.018;13.586;2023-04-19T15:04:58;6.72;;;3.88;;
43154;SDS011;34212;51.018;13.586;2023-04-19T15:10:00;5.77;;;3.90;;
43154;SDS011;34212;51.018;13.586;2023-04-19T15:15:03;10.32;;;3.92;;
43154;SDS011;34212;51.018;13.586;2023-04-19T15:25:07;7.53;;;3.80;;
43154;SDS011;34212;51.018;13.586;2023-04-19T15:35:12;6.45;;;3.70;;
43154;SDS011;34212;51.018;13.586;2023-04-19T15:40:14;6.67;;;3.70;;
43154;SDS011;34212;51.018;13.586;2023-04-19T15:45:17;5.95;;;3.72;;
43154;SDS011;34212;51.018;13.586;2023-04-19T15:55:21;5.97;;;3.70;;
43154;SDS011;34212;51.018;13.586;2023-04-19T16:00:23;6.95;;;4.35;;
43154;SDS011;34212;51.018;13.586;2023-04-19T16:05:25;5.13;;;3.72;;
43154;SDS011;34212;51.018;13.586;2023-04-19T16:10:27;5.03;;;4.05;;
43154;SDS011;34212;51.018;13.586;2023-04-19T16:15:29;5.68;;;4.05;;
43154;SDS011;34212;51.018;13.586;2023-04-19T16:20:31;5.68;;;4.00;;
43154;SDS011;34212;51.018;13.586;2023-04-19T16:25:32;7.07;;;4.63;;
43154;SDS011;34212;51.018;13.586;2023-04-19T16:30:34;6.75;;;4.55;;
43154;SDS011;34212;51.018;13.586;2023-04-19T16:35:36;6.03;;;3.60;;
43154;SDS011;34212;51.018;13.586;2023-04-19T16:40:37;10.68;;;4.82;;
43154;SDS011;34212;51.018;13.586;2023-04-19T16:45:39;5.45;;;4.53;;
43154;SDS011;34212;51.018;13.586;2023-04-19T16:50:42;5.90;;;4.57;;
43154;SDS011;34212;51.018;13.586;2023-04-19T16:55:44;6.43;;;4.10;;
43154;SDS011;34212;51.018;13.586;2023-04-19T17:00:46;7.25;;;4.20;;
43154;SDS011;34212;51.018;13.586;2023-04-19T17:05:48;5.85;;;4.35;;
43154;SDS011;34212;51.018;13.586;2023-04-19T17:10:49;5.72;;;4.03;;
43154;SDS011;34212;51.018;13.586;2023-04-19T17:15:51;6.78;;;4.57;;
43154;SDS011;34212;51.018;13.586;2023-04-19T17:20:53;6.75;;;4.43;;
43154;SDS011;34212;51.018;13.586;2023-04-19T17:25:54;6.35;;;5.40;;
43154;SDS011;34212;51.018;13.586;2023-04-19T17:30:56;5.85;;;4.85;;
43154;SDS011;34212;51.018;13.586;2023-04-19T17:35:57;13.52;;;9.85;;
43154;SDS011;34212;51.018;13.586;2023-04-19T17:40:59;10.45;;;7.93;;
43154;SDS011;34212;51.018;13.586;2023-04-19T17:46:02;7.22;;;4.55;;
43154;SDS011;34212;51.018;13.586;2023-04-19T17:51:04;8.18;;;5.40;;
43154;SDS011;34212;51.018;13.586;2023-04-19T17:56:06;7.13;;;5.18;;
43154;SDS011;34212;51.018;13.586;2023-04-19T18:01:08;6.25;;;4.82;;
43154;SDS011;34212;51.018;13.586;2023-04-19T18:06:10;6.20;;;5.13;;
43154;SDS011;34212;51.018;13.586;2023-04-19T18:11:12;10.38;;;5.97;;
43154;SDS011;34212;51.018;13.586;2023-04-19T18:16:13;6.63;;;5.47;;
43154;SDS011;34212;51.018;13.586;2023-04-19T18:21:17;7.72;;;5.13;;
43154;SDS011;34212;51.018;13.586;2023-04-19T18:26:19;6.43;;;4.70;;
43154;SDS011;34212;51.018;13.586;2023-04-19T18:31:23;7.75;;;4.45;;
43154;SDS011;34212;51.018;13.586;2023-04-19T18:36:25;9.90;;;8.80;;
43154;SDS011;34212;51.018;13.586;2023-04-19T18:46:35;9.32;;;5.30;;
43154;SDS011;34212;51.018;13.586;2023-04-19T18:51:37;7.00;;;5.53;;
43154;SDS011;34212;51.018;13.586;2023-04-19T18:56:39;7.00;;;4.95;;
43154;SDS011;34212;51.018;13.586;2023-04-19T19:02:00;9.60;;;4.70;;
43154;SDS011;34212;51.018;13.586;2023-04-19T19:07:02;5.72;;;4.50;;
43154;SDS011;34212;51.018;13.586;2023-04-19T19:12:18;5.82;;;3.97;;
43154;SDS011;34212;51.018;13.586;2023-04-19T19:17:20;5.82;;;4.22;;
43154;SDS011;34212;51.018;13.586;2023-04-19T19:22:22;10.47;;;4.80;;
43154;SDS011;34212;51.018;13.586;2023-04-19T19:27:29;5.43;;;4.93;;
43154;SDS011;34212;51.018;13.586;2023-04-19T19:32:30;8.10;;;5.03;;
43154;SDS011;34212;51.018;13.586;2023-04-19T19:37:33;5.93;;;4.93;;
43154;SDS011;34212;51.018;13.586;2023-04-19T19:42:38;6.38;;;4.47;;
43154;SDS011;34212;51.018;13.586;2023-04-19T19:47:40;6.83;;;4.53;;
43154;SDS011;34212;51.018;13.586;2023-04-19T19:52:46;7.30;;;4.20;;
43154;SDS011;34212;51.018;13.586;2023-04-19T19:57:48;6.90;;;4.40;;
43154;SDS011;34212;51.018;13.586;2023-04-19T20:03:09;5.85;;;4.45;;
43154;SDS011;34212;51.018;13.586;2023-04-19T20:08:13;5.68;;;4.28;;
43154;SDS011;34212;51.018;13.586;2023-04-19T20:13:15;6.07;;;4.35;;
43154;SDS011;34212;51.018;13.586;2023-04-19T20:18:17;6.10;;;3.83;;
43154;SDS011;34212;51.018;13.586;2023-04-19T20:23:19;5.40;;;3.95;;
43154;SDS011;34212;51.018;13.586;2023-04-19T20:33:23;6.22;;;4.45;;
43154;SDS011;34212;51.018;13.586;2023-04-19T20:38:24;4.70;;;3.67;;
43154;SDS011;34212;51.018;13.586;2023-04-19T20:43:29;5.18;;;4.10;;
43154;SDS011;34212;51.018;13.586;2023-04-19T20:48:31;6.13;;;5.05;;
43154;SDS011;34212;51.018;13.586;2023-04-19T20:53:33;6.97;;;4.60;;
43154;SDS011;34212;51.018;13.586;2023-04-19T20:58:34;5.63;;;4.38;;
43154;SDS011;34212;51.018;13.586;2023-04-19T21:03:37;6.20;;;4.53;;
43154;SDS011;34212;51.018;13.586;2023-04-19T21:08:39;5.80;;;4.32;;
43154;SDS011;34212;51.018;13.586;2023-04-19T21:13:41;6.65;;;4.75;;
43154;SDS011;34212;51.018;13.586;2023-04-19T21:18:42;5.57;;;4.93;;
43154;SDS011;34212;51.018;13.586;2023-04-19T21:23:44;6.32;;;5.07;;
43154;SDS011;34212;51.018;13.586;2023-04-19T21:28:45;8.57;;;5.68;;
43154;SDS011;34212;51.018;13.586;2023-04-19T21:33:47;7.18;;;6.13;;
43154;SDS011;34212;51.018;13.586;2023-04-19T21:38:48;6.40;;;5.55;;
43154;SDS011;34212;51.018;13.586;2023-04-19T21:43:50;6.47;;;5.13;;
43154;SDS011;34212;51.018;13.586;2023-04-19T21:48:51;7.43;;;5.68;;
43154;SDS011;34212;51.018;13.586;2023-04-19T21:53:56;9.18;;;6.32;;
43154;SDS011;34212;51.018;13.586;2023-04-19T21:58:57;8.25;;;5.72;;
